Terminal Aerodrome Forecast
Issued by NWS

Home | Current Version | Previous Version | Text Only | Print | Product List | Glossary On
Versions: 1 2 3 4 5 6 7 8 9 10 11 12 13 14 15
404
FTUS43 KILX 281120
TAFCMI
TAF
KCMI 281120Z 2812/2912 16008KT P6SM SCT250
     FM281400 18011G21KT P6SM SCT200
     FM290400 19010G19KT P6SM VCSH BKN250 WS020/21045KT
     FM290900 20009KT P6SM VCSH BKN200=

USA.gov is the U.S. government's official web portal to all federal, state and local government web resources and services.